Time;durP1;ratioP1;P1;durP2;ratioP2;P2;SDS_P1;SDS_P2;PMS_P1;PMS_P2;Temp;Humidity;BMP_temperature;BMP_pressure;BME280_temperature;BME280_humidity;BME280_pressure;Samples;Min_cycle;Max_cycle;Signal;HPM_P1;HPM_P2
2022/09/05 00:01:35;;;;;;;9.00;4.40;;;;;;;13.28;91.18;94401.22;5009283;28;20042;-71
2022/09/05 00:04:21;;;;;;;10.02;4.70;;;;;;;13.31;91.02;94403.94;5010302;28;20052;-69
2022/09/05 00:07:13;;;;;;;8.80;5.00;;;;;;;13.27;90.80;94403.19;5009865;28;20054;-66
2022/09/05 00:10:26;;;;;;;7.63;4.88;;;;;;;13.30;91.02;94404.38;5010130;28;20041;-65
2022/09/05 00:13:09;;;;;;;8.75;5.05;;;;;;;13.34;90.77;94403.13;5009711;28;20056;-65
2022/09/05 00:15:41;;;;;;;8.45;4.93;;;;;;;13.22;92.09;94398.19;5010722;28;20123;-65
2022/09/05 00:18:25;;;;;;;8.38;5.05;;;;;;;13.14;92.32;94403.03;5009588;28;20678;-65
2022/09/05 00:21:24;;;;;;;10.63;5.10;;;;;;;13.19;91.64;94399.03;5009864;28;20483;-70
2022/09/05 00:24:39;;;;;;;7.53;4.88;;;;;;;13.04;92.42;94403.22;5009847;28;20117;-67
2022/09/05 00:27:30;;;;;;;86.63;47.95;;;;;;;13.07;92.12;94394.13;5009773;28;20454;-67
2022/09/05 00:30:15;;;;;;;8.32;5.68;;;;;;;12.95;93.16;94390.75;5009646;28;20446;-65
2022/09/05 00:33:20;;;;;;;8.93;5.60;;;;;;;12.88;94.06;94377.13;5009770;28;20151;-64
2022/09/05 00:36:05;;;;;;;8.03;4.77;;;;;;;12.78;92.91;94378.84;5009342;28;20114;-66
2022/09/05 00:38:33;;;;;;;7.85;5.07;;;;;;;12.81;92.94;94376.44;5010461;28;20053;-69
2022/09/05 00:41:07;;;;;;;8.75;4.55;;;;;;;12.86;92.57;94381.47;5009044;28;20052;-70
2022/09/05 00:43:45;;;;;;;7.53;4.32;;;;;;;12.85;91.49;94377.94;5010313;28;20052;-64
2022/09/05 00:46:35;;;;;;;6.20;4.28;;;;;;;12.87;91.23;94378.31;5007084;28;20888;-65
2022/09/05 00:49:16;;;;;;;6.83;4.40;;;;;;;12.86;91.02;94376.75;5001816;28;20076;-67
2022/09/05 00:51:45;;;;;;;9.98;4.50;;;;;;;12.79;91.62;94377.63;5009227;28;20045;-71
2022/09/05 00:54:36;;;;;;;8.93;5.00;;;;;;;12.66;92.90;94375.91;5015826;28;20083;-65
2022/09/05 00:57:31;;;;;;;9.90;5.03;;;;;;;12.74;92.66;94380.09;5017237;28;20042;-65
2022/09/05 01:00:10;;;;;;;9.98;6.25;;;;;;;12.72;91.91;94380.53;5014313;28;20048;-64
2022/09/05 01:03:20;;;;;;;9.07;4.93;;;;;;;12.70;92.25;94379.38;5015676;28;20044;-68
2022/09/05 01:06:13;;;;;;;8.10;4.60;;;;;;;12.68;92.45;94379.81;5006360;28;20037;-66
2022/09/05 01:09:01;;;;;;;7.47;5.30;;;;;;;12.68;92.27;94373.53;5016111;28;20462;-74
2022/09/05 01:11:59;;;;;;;7.50;4.90;;;;;;;12.69;92.30;94366.81;5016443;28;20576;-64
2022/09/05 01:15:00;;;;;;;8.32;5.05;;;;;;;12.59;92.60;94363.78;5015749;28;20357;-68
2022/09/05 01:17:57;;;;;;;9.20;5.10;;;;;;;12.60;92.43;94356.31;5014519;28;20053;-64
2022/09/05 01:20:40;;;;;;;9.07;4.30;;;;;;;12.59;92.03;94363.78;5015581;28;20592;-69
2022/09/05 01:23:27;;;;;;;8.43;4.43;;;;;;;12.64;91.92;94361.78;5015663;28;20045;-71
2022/09/05 01:26:09;;;;;;;6.82;4.28;;;;;;;12.61;91.71;94365.34;5015482;28;20069;-65
2022/09/05 01:28:48;;;;;;;9.60;4.90;;;;;;;12.49;92.14;94363.97;5016110;28;20407;-71
2022/09/05 01:31:59;;;;;;;9.07;5.40;;;;;;;12.44;93.42;94358.94;5015563;28;21610;-71
2022/09/05 01:34:49;;;;;;;9.85;5.20;;;;;;;12.38;93.28;94364.13;5003542;28;20872;-64
2022/09/05 01:37:22;;;;;;;9.95;5.40;;;;;;;12.15;93.94;94362.09;5015775;28;21726;-64
2022/09/05 01:40:18;;;;;;;8.95;5.22;;;;;;;12.18;94.14;94361.28;5015704;28;20041;-68
2022/09/05 01:42:53;;;;;;;8.80;5.43;;;;;;;12.26;94.79;94365.50;5015394;28;20046;-71
2022/09/05 01:45:35;;;;;;;9.47;5.17;;;;;;;12.33;94.07;94357.09;5014122;28;20048;-68
2022/09/05 01:48:44;;;;;;;8.65;5.40;;;;;;;12.27;95.65;94358.00;5012450;28;22097;-64
2022/09/05 01:51:39;;;;;;;10.02;5.85;;;;;;;12.16;96.61;94360.91;5015696;28;20628;-65
2022/09/05 01:54:32;;;;;;;8.90;5.88;;;;;;;12.19;96.01;94362.81;5011876;28;21679;-64
2022/09/05 01:57:20;;;;;;;8.07;5.40;;;;;;;12.28;95.11;94363.09;5005152;28;20049;-65
2022/09/05 02:00:26;;;;;;;8.63;5.13;;;;;;;11.99;95.14;94360.75;5015376;28;20050;-65
2022/09/05 02:02:59;;;;;;;8.20;5.40;;;;;;;12.07;95.20;94360.63;5015068;28;20393;-71
2022/09/05 02:05:45;;;;;;;8.65;5.50;;;;;;;12.14;95.02;94368.81;5012875;28;20046;-69
2022/09/05 02:08:14;;;;;;;9.18;5.85;;;;;;;12.14;95.55;94368.81;5011783;28;20588;-65
2022/09/05 02:10:47;;;;;;;10.85;5.10;;;;;;;12.17;95.09;94365.22;5012403;28;20172;-64
2022/09/05 02:13:32;;;;;;;8.50;4.80;;;;;;;12.19;94.51;94373.84;5012967;28;20453;-65
2022/09/05 02:16:02;;;;;;;9.07;5.10;;;;;;;12.21;95.42;94367.91;5012064;28;20402;-64
2022/09/05 02:18:51;;;;;;;7.30;5.03;;;;;;;12.16;94.71;94375.44;5011486;28;20414;-70
2022/09/05 02:21:34;;;;;;;7.65;5.00;;;;;;;12.20;93.95;94375.41;5011905;28;21655;-64
2022/09/05 02:24:44;;;;;;;8.27;5.22;;;;;;;12.19;93.90;94371.09;5001400;28;20411;-71
2022/09/05 02:27:15;;;;;;;7.60;5.37;;;;;;;12.11;94.16;94367.66;5011814;28;20910;-65
2022/09/05 02:30:16;;;;;;;7.85;5.00;;;;;;;12.10;93.90;94370.84;5011856;28;20428;-68
2022/09/05 02:33:02;;;;;;;8.52;5.20;;;;;;;12.07;93.52;94379.91;5012218;28;20384;-63
2022/09/05 02:36:01;;;;;;;7.88;5.10;;;;;;;11.99;93.04;94370.97;5012424;28;20406;-70
2022/09/05 02:38:38;;;;;;;11.75;5.25;;;;;;;11.97;92.92;94367.84;5001014;28;20738;-64
2022/09/05 02:41:34;;;;;;;7.80;4.70;;;;;;;11.97;94.03;94359.59;5011376;28;20526;-64
2022/09/05 02:44:31;;;;;;;8.48;5.20;;;;;;;11.95;94.84;94361.97;5010404;28;20372;-64
2022/09/05 02:47:26;;;;;;;8.35;5.10;;;;;;;12.02;93.67;94372.91;5010287;28;20415;-63
2022/09/05 02:50:21;;;;;;;7.65;5.18;;;;;;;12.04;93.59;94370.50;5011144;28;20381;-66
2022/09/05 02:53:12;;;;;;;9.25;5.30;;;;;;;11.93;93.50;94367.91;5010804;28;20445;-68
2022/09/05 02:56:10;;;;;;;8.57;5.00;;;;;;;11.78;94.55;94370.03;5011206;28;20052;-64
2022/09/05 02:59:09;;;;;;;9.07;5.18;;;;;;;11.85;94.17;94368.38;5011082;28;20076;-70
2022/09/05 03:02:00;;;;;;;9.35;5.18;;;;;;;11.93;93.69;94372.63;5011865;28;20042;-65
2022/09/05 03:04:46;;;;;;;8.20;5.32;;;;;;;11.90;94.42;94368.72;5009839;28;20937;-71
2022/09/05 03:07:47;;;;;;;8.10;5.70;;;;;;;11.93;94.29;94361.59;5010821;28;20077;-64
2022/09/05 03:10:44;;;;;;;12.07;5.63;;;;;;;11.88;94.18;94360.06;5010767;28;21210;-65
2022/09/05 03:13:38;;;;;;;11.98;5.80;;;;;;;11.87;94.08;94364.03;5010879;28;20538;-67
2022/09/05 03:16:57;;;;;;;9.98;5.50;;;;;;;11.86;93.88;94364.44;5007714;28;20049;-71
2022/09/05 03:19:54;;;;;;;9.98;5.45;;;;;;;11.85;93.82;94362.88;5011105;28;20677;-65
2022/09/05 03:22:43;;;;;;;8.95;5.68;;;;;;;11.75;94.03;94362.59;4999110;28;20050;-70
2022/09/05 03:25:40;;;;;;;11.90;5.97;;;;;;;11.69;95.03;94361.50;5010301;28;20818;-65
2022/09/05 03:28:25;;;;;;;10.48;6.15;;;;;;;11.74;95.42;94357.50;5010143;28;20939;-64
2022/09/05 03:31:17;;;;;;;11.57;6.28;;;;;;;11.79;94.66;94357.03;5010774;28;20406;-70
2022/09/05 03:34:13;;;;;;;9.90;6.65;;;;;;;11.77;94.26;94348.44;5010586;28;20042;-73
2022/09/05 03:36:58;;;;;;;8.82;5.60;;;;;;;11.77;93.84;94354.72;5010574;28;20402;-63
2022/09/05 03:39:44;;;;;;;9.60;5.80;;;;;;;11.75;93.74;94353.56;5011370;28;20085;-64
2022/09/05 03:42:19;;;;;;;9.27;5.85;;;;;;;11.75;93.99;94353.56;5010094;28;20403;-66
2022/09/05 03:45:12;;;;;;;8.23;5.60;;;;;;;11.75;93.79;94356.31;5010159;28;20062;-65
2022/09/05 03:47:57;;;;;;;11.90;6.43;;;;;;;11.54;95.67;94355.38;5010564;28;20069;-67
2022/09/05 03:50:57;;;;;;;10.85;6.78;;;;;;;11.67;95.17;94352.91;5010486;28;20053;-67
2022/09/05 03:54:02;;;;;;;10.27;6.77;;;;;;;11.67;95.25;94352.09;5010559;28;20414;-71
2022/09/05 03:57:27;;;;;;;13.23;6.28;;;;;;;11.63;94.48;94345.88;5010276;28;20056;-66
2022/09/05 04:00:28;;;;;;;9.60;5.80;;;;;;;11.68;94.50;94348.16;5009537;28;21860;-65
2022/09/05 04:03:25;;;;;;;52.13;30.10;;;;;;;11.60;95.09;94350.22;5010069;28;20046;-64
2022/09/05 04:06:20;;;;;;;11.68;7.35;;;;;;;11.47;95.69;94349.19;5009507;28;20057;-64
2022/09/05 04:09:27;;;;;;;9.13;6.27;;;;;;;11.43;95.74;94353.94;5009370;28;20090;-64
2022/09/05 04:12:25;;;;;;;10.60;6.70;;;;;;;11.49;95.64;94352.31;5009593;28;20751;-64
2022/09/05 04:14:58;;;;;;;9.90;6.57;;;;;;;11.54;95.12;94355.38;5009713;28;20054;-76
2022/09/05 04:17:46;;;;;;;9.73;6.53;;;;;;;11.56;95.09;94352.22;5010641;28;20489;-65
2022/09/05 04:21:00;;;;;;;10.68;6.55;;;;;;;11.53;95.45;94350.28;5009259;28;20053;-67
2022/09/05 04:23:59;;;;;;;11.27;7.00;;;;;;;11.52;96.06;94354.25;4990198;28;20445;-64
2022/09/05 04:26:44;;;;;;;11.93;6.82;;;;;;;11.50;96.04;94354.66;4989071;28;20896;-64
2022/09/05 04:29:41;;;;;;;12.23;7.18;;;;;;;11.34;96.87;94348.94;5007560;28;20411;-65
2022/09/05 04:32:30;;;;;;;13.20;7.30;;;;;;;11.47;96.68;94357.44;4998644;28;20207;-65
2022/09/05 04:35:05;;;;;;;11.52;7.38;;;;;;;11.50;96.50;94357.41;5009087;28;20111;-64
2022/09/05 04:37:39;;;;;;;11.60;7.87;;;;;;;11.50;95.94;94364.88;5010206;28;20085;-70
2022/09/05 04:40:35;;;;;;;12.27;7.40;;;;;;;11.45;96.57;94366.13;4995365;28;20089;-68
2022/09/05 04:43:25;;;;;;;10.65;6.90;;;;;;;11.40;96.69;94363.81;5009584;28;20046;-67
2022/09/05 04:46:05;;;;;;;11.98;7.50;;;;;;;11.25;97.00;94368.69;5002823;28;20380;-71
2022/09/05 04:48:52;;;;;;;11.68;7.60;;;;;;;11.31;97.33;94377.28;5009991;28;20046;-64
2022/09/05 04:51:39;;;;;;;13.67;8.40;;;;;;;11.31;97.16;94367.03;5002324;28;20787;-63
2022/09/05 04:54:34;;;;;;;11.35;7.40;;;;;;;11.44;97.21;94377.50;5008555;28;20647;-63
2022/09/05 04:57:11;;;;;;;11.27;7.07;;;;;;;11.49;96.70;94377.84;5009262;28;20077;-64
2022/09/05 05:00:03;;;;;;;14.45;7.00;;;;;;;11.55;96.17;94384.44;5009543;28;20046;-65
2022/09/05 05:03:11;;;;;;;11.85;7.18;;;;;;;11.44;96.79;94383.78;5007931;28;20071;-64
2022/09/05 05:06:04;;;;;;;10.70;6.60;;;;;;;11.39;96.66;94387.00;5009014;28;20050;-63
2022/09/05 05:09:12;;;;;;;12.65;6.35;;;;;;;11.58;95.78;94389.09;5008639;28;20053;-65
2022/09/05 05:11:54;;;;;;;10.10;6.13;;;;;;;11.60;96.26;94394.97;5009458;28;20046;-67
2022/09/05 05:14:50;;;;;;;8.45;5.70;;;;;;;11.75;95.50;94395.59;5009037;28;20046;-62
2022/09/05 05:18:31;;;;;;;9.45;6.03;;;;;;;11.79;95.00;94401.03;5009843;28;20049;-63
2022/09/05 05:21:21;;;;;;;11.27;6.57;;;;;;;11.76;95.24;94412.88;4992246;28;22050;-62
2022/09/05 05:23:59;;;;;;;10.60;6.50;;;;;;;11.89;95.11;94411.19;4996049;28;20038;-63
2022/09/05 05:26:31;;;;;;;10.60;6.25;;;;;;;11.95;94.13;94411.47;5009481;28;20042;-63
2022/09/05 05:29:03;;;;;;;12.23;6.35;;;;;;;12.10;94.13;94421.13;5008866;28;20061;-63
2022/09/05 05:31:33;;;;;;;13.35;6.07;;;;;;;12.15;93.77;94422.63;5008381;28;20061;-64
2022/09/05 05:34:04;;;;;;;9.73;5.80;;;;;;;12.26;93.20;94417.78;5008743;28;20048;-64
2022/09/05 05:36:56;;;;;;;10.05;6.15;;;;;;;12.39;92.94;94427.03;4999303;28;20050;-62
2022/09/05 05:39:28;;;;;;;8.90;6.07;;;;;;;12.57;91.72;94420.47;5009546;28;20050;-62
2022/09/05 05:41:57;;;;;;;9.88;6.13;;;;;;;12.76;91.49;94419.78;5010606;28;20046;-62
2022/09/05 05:44:57;;;;;;;12.23;6.30;;;;;;;12.97;90.58;94417.88;5011501;28;20238;-67
2022/09/05 05:47:46;;;;;;;10.23;6.30;;;;;;;13.16;89.69;94430.97;5012552;28;20038;-63
2022/09/05 05:50:41;;;;;;;9.68;6.25;;;;;;;13.10;89.52;94429.09;5011021;28;20061;-66
2022/09/05 05:53:20;;;;;;;9.80;6.30;;;;;;;12.99;88.88;94430.03;5011450;28;21707;-64
2022/09/05 05:56:26;;;;;;;9.85;6.10;;;;;;;13.37;88.00;94432.59;5011429;28;20489;-64
2022/09/05 05:59:10;;;;;;;11.98;6.43;;;;;;;13.47;87.73;94421.81;5011365;28;20054;-63
2022/09/05 06:02:14;;;;;;;10.07;6.53;;;;;;;13.46;87.43;94426.53;5008059;28;20060;-65
2022/09/05 06:04:59;;;;;;;10.00;6.80;;;;;;;13.24;88.20;94425.31;5011843;28;20151;-67
2022/09/05 06:08:12;;;;;;;10.75;7.00;;;;;;;13.33;88.25;94431.88;5012552;28;20407;-65
2022/09/05 06:11:27;;;;;;;15.00;7.38;;;;;;;13.65;86.91;94422.25;4983579;28;20455;-68
2022/09/05 06:14:59;;;;;;;11.25;6.88;;;;;;;13.63;87.23;94426.63;5002776;28;21544;-64
2022/09/05 06:18:03;;;;;;;12.57;7.70;;;;;;;13.59;87.15;94423.94;5010650;28;20756;-62
2022/09/05 06:20:33;;;;;;;13.60;7.10;;;;;;;13.73;87.08;94431.16;5012683;28;20075;-67
2022/09/05 06:23:41;;;;;;;12.25;7.70;;;;;;;13.95;86.92;94421.25;5011628;28;20050;-64
2022/09/05 06:26:34;;;;;;;10.77;7.20;;;;;;;13.96;86.61;94428.34;5011558;28;21194;-64
2022/09/05 06:29:23;;;;;;;10.30;7.10;;;;;;;13.87;87.37;94428.13;4982486;28;20042;-64
2022/09/05 06:32:28;;;;;;;10.13;7.17;;;;;;;13.96;87.21;94431.09;5001416;28;20791;-64
2022/09/05 06:35:10;;;;;;;12.88;6.82;;;;;;;14.18;86.95;94423.16;5011632;28;20046;-64
2022/09/05 06:38:14;;;;;;;10.93;7.00;;;;;;;14.24;85.95;94428.16;5012203;28;20045;-64
2022/09/05 06:41:14;;;;;;;10.70;7.05;;;;;;;14.68;85.83;94426.81;5011006;28;20912;-64
2022/09/05 06:44:14;;;;;;;10.10;6.70;;;;;;;14.86;83.71;94426.41;5011559;28;20064;-64
2022/09/05 06:46:42;;;;;;;13.93;7.20;;;;;;;15.37;82.17;94418.47;5011361;28;20042;-68
2022/09/05 06:49:38;;;;;;;10.77;6.53;;;;;;;18.43;70.61;94418.06;5012345;28;20060;-65
2022/09/05 06:52:11;;;;;;;9.43;6.25;;;;;;;21.25;58.55;94427.97;5010568;28;20752;-71
2022/09/05 06:55:01;;;;;;;9.40;6.35;;;;;;;22.39;54.39;94417.88;5011600;28;20054;-65
2022/09/05 06:57:34;;;;;;;9.65;6.45;;;;;;;23.98;49.57;94411.38;5011771;28;20060;-72
2022/09/05 07:00:23;;;;;;;7.30;5.47;;;;;;;26.02;44.77;94419.47;5010858;28;21818;-65
2022/09/05 07:03:12;;;;;;;10.35;6.03;;;;;;;26.53;44.30;94417.56;5010376;28;20042;-65
2022/09/05 07:05:54;;;;;;;9.80;5.97;;;;;;;27.47;42.02;94412.53;5009896;28;20107;-67
2022/09/05 07:08:29;;;;;;;8.60;6.05;;;;;;;26.79;42.36;94414.56;5011395;28;20437;-65
2022/09/05 07:11:31;;;;;;;7.10;5.40;;;;;;;26.44;43.57;94423.44;5010986;28;20491;-66
2022/09/05 07:14:12;;;;;;;11.40;5.37;;;;;;;27.89;41.47;94421.16;5010958;28;20115;-65
2022/09/05 07:16:46;;;;;;;8.57;5.80;;;;;;;26.30;42.95;94425.22;5011276;28;20045;-72
2022/09/05 07:19:36;;;;;;;9.05;5.45;;;;;;;25.92;43.63;94430.16;5011240;28;20042;-65
2022/09/05 07:22:27;;;;;;;6.35;5.10;;;;;;;27.06;41.34;94420.72;5010638;28;20064;-66
2022/09/05 07:25:18;;;;;;;7.57;5.38;;;;;;;27.28;41.12;94422.78;5010507;28;21778;-65
2022/09/05 07:28:03;;;;;;;7.47;5.30;;;;;;;27.22;41.56;94422.00;5010778;28;20494;-66
2022/09/05 07:30:56;;;;;;;6.60;5.03;;;;;;;28.92;37.88;94422.19;5011189;28;20046;-65
2022/09/05 07:33:28;;;;;;;6.53;4.70;;;;;;;28.48;38.89;94419.09;5011048;28;20045;-64
2022/09/05 07:36:14;;;;;;;9.18;4.90;;;;;;;27.75;40.08;94417.34;5010756;28;20045;-64
2022/09/05 07:38:43;;;;;;;6.45;5.30;;;;;;;26.73;41.76;94427.88;5010812;28;20403;-64
2022/09/05 07:41:33;;;;;;;6.13;4.90;;;;;;;27.38;41.29;94431.75;5011333;28;20390;-65
2022/09/05 07:44:07;;;;;;;9.27;4.93;;;;;;;27.95;40.82;94423.94;5010716;28;20467;-65
2022/09/05 07:46:38;;;;;;;6.35;4.40;;;;;;;29.36;37.59;94423.91;5011086;28;20050;-65
2022/09/05 07:49:13;;;;;;;5.28;4.07;;;;;;;30.48;35.71;94429.66;5009963;28;20563;-66
2022/09/05 07:51:53;;;;;;;6.95;4.60;;;;;;;30.48;35.97;94421.16;5010607;28;20041;-66
2022/09/05 07:54:41;;;;;;;5.83;4.30;;;;;;;30.80;35.22;94432.56;5010571;28;20430;-66
2022/09/05 07:57:36;;;;;;;6.82;4.68;;;;;;;30.12;36.84;94429.81;5010892;28;20056;-66
2022/09/05 08:00:19;;;;;;;5.75;4.13;;;;;;;30.94;36.02;94433.41;5009820;28;20038;-67
2022/09/05 08:02:53;;;;;;;4.80;3.92;;;;;;;32.51;32.66;94437.59;5008607;28;20050;-66
2022/09/05 08:05:25;;;;;;;6.28;3.95;;;;;;;33.37;31.69;94428.72;5010480;28;20041;-70
2022/09/05 08:08:05;;;;;;;5.77;3.90;;;;;;;33.88;31.17;94435.97;5010302;28;20503;-68
2022/09/05 08:10:39;;;;;;;4.30;3.42;;;;;;;34.66;29.23;94432.28;5010803;28;20064;-66
2022/09/05 08:13:42;;;;;;;6.57;3.40;;;;;;;35.20;28.46;94438.94;5009643;28;20583;-69
2022/09/05 08:16:17;;;;;;;5.10;3.00;;;;;;;34.37;29.17;94435.94;5009518;28;20068;-69
2022/09/05 08:19:03;;;;;;;5.20;3.20;;;;;;;34.47;29.25;94435.41;5010067;28;20552;-66
2022/09/05 08:21:41;;;;;;;5.67;3.30;;;;;;;33.61;30.26;94430.44;5010178;28;20058;-71
2022/09/05 08:24:19;;;;;;;4.75;3.10;;;;;;;33.40;31.58;94433.28;5009379;28;20042;-71
2022/09/05 08:27:06;;;;;;;5.68;3.70;;;;;;;34.06;30.18;94434.22;5008833;28;20067;-67
2022/09/05 08:29:54;;;;;;;4.82;3.20;;;;;;;33.55;30.58;94424.13;5009951;28;20103;-68
2022/09/05 08:32:59;;;;;;;4.85;3.17;;;;;;;33.08;31.12;94425.75;5010028;28;20046;-64
2022/09/05 08:35:39;;;;;;;4.60;3.17;;;;;;;33.25;31.31;94433.16;5010402;28;20096;-66
2022/09/05 08:38:07;;;;;;;4.72;3.22;;;;;;;34.13;29.39;94433.47;5009375;28;20498;-75
2022/09/05 08:40:45;;;;;;;6.85;3.20;;;;;;;32.65;30.37;94427.00;5010050;28;20056;-66
2022/09/05 08:43:35;;;;;;;4.10;3.17;;;;;;;32.53;32.41;94426.44;5008924;28;20479;-66
2022/09/05 08:46:34;;;;;;;4.10;2.90;;;;;;;31.83;31.75;94421.91;5009028;28;20473;-67
2022/09/05 08:49:31;;;;;;;5.63;2.90;;;;;;;33.45;30.39;94426.72;5009023;28;21606;-66
2022/09/05 08:52:13;;;;;;;4.57;3.08;;;;;;;31.08;33.17;94431.41;5009498;28;20904;-67
2022/09/05 08:55:12;;;;;;;4.47;2.83;;;;;;;31.72;32.40;94424.19;5009845;28;20446;-69
2022/09/05 08:57:45;;;;;;;3.72;3.08;;;;;;;31.57;32.97;94427.53;4980834;28;20059;-67
2022/09/05 09:00:15;;;;;;;3.75;3.00;;;;;;;31.67;33.07;94428.63;4995618;28;20042;-66
2022/09/05 09:03:36;;;;;;;7.07;3.20;;;;;;;32.16;31.99;94419.72;5009810;28;20056;-67
2022/09/05 09:06:15;;;;;;;3.80;2.80;;;;;;;32.42;31.38;94413.25;5005866;28;20046;-67
2022/09/05 09:09:05;;;;;;;4.93;3.00;;;;;;;31.09;34.17;94417.97;5009445;28;20044;-66
2022/09/05 09:11:47;;;;;;;5.35;3.10;;;;;;;32.28;32.43;94410.97;5009800;28;20049;-66
2022/09/05 09:14:32;;;;;;;3.78;2.83;;;;;;;33.11;30.99;94406.88;5010439;28;20068;-67
2022/09/05 09:17:25;;;;;;;4.00;2.93;;;;;;;32.64;31.40;94411.28;5013519;28;20079;-66
2022/09/05 09:20:35;;;;;;;3.85;2.80;;;;;;;33.77;30.17;94408.59;5013661;28;20056;-66
2022/09/05 09:23:12;;;;;;;4.57;2.83;;;;;;;32.64;32.74;94403.50;5013463;28;20468;-66
2022/09/05 09:26:12;;;;;;;8.70;5.10;;;;;;;32.80;32.18;94403.66;5013275;28;20049;-67
2022/09/05 09:28:55;;;;;;;15.25;7.63;;;;;;;33.03;32.39;94395.38;4999706;28;20049;-64
2022/09/05 09:31:27;;;;;;;4.53;2.93;;;;;;;33.71;31.29;94397.34;5013543;28;20044;-67
2022/09/05 09:34:12;;;;;;;4.32;3.00;;;;;;;31.85;33.82;94398.63;5012792;28;20530;-66
2022/09/05 09:37:01;;;;;;;6.60;3.40;;;;;;;32.91;32.31;94397.72;5007408;28;20041;-67
2022/09/05 09:40:15;;;;;;;5.05;2.80;;;;;;;31.99;33.62;94391.63;5013265;28;20057;-66
2022/09/05 09:43:04;;;;;;;4.93;2.80;;;;;;;31.71;34.04;94399.94;5009462;28;20065;-69
2022/09/05 09:46:21;;;;;;;3.77;3.00;;;;;;;31.64;34.48;94390.00;5013004;28;20052;-66
2022/09/05 09:49:03;;;;;;;3.75;2.70;;;;;;;30.58;35.85;94393.22;4995792;28;20050;-66
2022/09/05 09:52:05;;;;;;;3.88;2.88;;;;;;;32.28;33.85;94388.25;5012701;28;20057;-67
2022/09/05 09:55:15;;;;;;;3.70;2.78;;;;;;;31.41;34.94;94389.59;5012634;28;20041;-71
2022/09/05 09:57:57;;;;;;;4.10;2.92;;;;;;;31.12;35.26;94391.41;5012607;28;20054;-67
2022/09/05 10:00:28;;;;;;;4.57;2.90;;;;;;;32.06;33.23;94383.81;5012766;28;20127;-66
2022/09/05 10:02:58;;;;;;;3.78;2.80;;;;;;;31.51;34.49;94382.25;5012688;28;20523;-68
2022/09/05 10:05:53;;;;;;;4.45;2.83;;;;;;;32.43;32.76;94385.59;5012502;28;20133;-67
2022/09/05 10:09:07;;;;;;;3.80;2.70;;;;;;;32.90;32.20;94373.47;5011857;28;20064;-67
2022/09/05 10:12:15;;;;;;;3.85;2.85;;;;;;;32.89;32.57;94377.63;5012154;28;20572;-66
2022/09/05 10:14:55;;;;;;;4.10;2.70;;;;;;;31.33;34.73;94377.38;4981538;28;20050;-70
2022/09/05 10:17:53;;;;;;;3.85;2.72;;;;;;;31.51;34.48;94372.97;5011682;28;20073;-69
2022/09/05 10:20:43;;;;;;;4.38;3.10;;;;;;;30.54;37.01;94379.38;5011806;28;20699;-66
2022/09/05 10:23:55;;;;;;;4.20;2.97;;;;;;;28.74;39.68;94379.19;5011484;28;20633;-66
2022/09/05 10:26:35;;;;;;;5.15;3.30;;;;;;;29.71;37.89;94371.41;5010986;28;21789;-66
2022/09/05 10:29:19;;;;;;;5.13;3.00;;;;;;;29.38;38.32;94372.47;5010766;28;20056;-66
2022/09/05 10:32:11;;;;;;;4.10;3.10;;;;;;;29.06;39.69;94370.19;5011914;28;21532;-66
2022/09/05 10:35:04;;;;;;;4.90;2.90;;;;;;;28.75;39.89;94369.41;5010475;28;20059;-67
2022/09/05 10:37:53;;;;;;;5.55;3.00;;;;;;;28.31;41.49;94367.63;5011961;28;20042;-66
2022/09/05 10:40:24;;;;;;;6.72;3.30;;;;;;;28.32;42.50;94369.16;5012195;28;20442;-69
2022/09/05 10:42:57;;;;;;;5.37;3.13;;;;;;;27.34;44.08;94367.19;5011781;28;20073;-70
2022/09/05 10:45:43;;;;;;;5.80;3.20;;;;;;;28.11;43.16;94371.56;5011978;28;20050;-69
2022/09/05 10:48:37;;;;;;;4.95;3.17;;;;;;;27.86;43.15;94372.16;5011396;28;21437;-66
2022/09/05 10:51:14;;;;;;;4.78;3.60;;;;;;;26.37;47.63;94373.28;5011126;28;21688;-69
2022/09/05 10:54:16;;;;;;;5.03;3.20;;;;;;;27.49;45.42;94364.84;5011482;28;20048;-65
2022/09/05 10:56:49;;;;;;;4.20;3.23;;;;;;;27.34;45.33;94372.81;5011540;28;20034;-70
2022/09/05 10:59:46;;;;;;;4.63;3.38;;;;;;;26.92;46.10;94365.41;5011748;28;20077;-67
2022/09/05 11:02:40;;;;;;;4.78;3.40;;;;;;;26.03;48.76;94376.78;5010522;28;20354;-65
2022/09/05 11:05:26;;;;;;;6.03;3.40;;;;;;;26.79;46.76;94365.94;5010963;28;21480;-66
2022/09/05 11:08:05;;;;;;;4.65;3.60;;;;;;;26.82;47.54;94373.34;5011481;28;20050;-69
2022/09/05 11:10:50;;;;;;;5.40;3.30;;;;;;;27.41;46.49;94363.09;5011604;28;20046;-68
2022/09/05 11:13:30;;;;;;;5.35;3.78;;;;;;;26.94;46.52;94363.63;5010944;28;20199;-66
2022/09/05 11:16:03;;;;;;;6.05;3.38;;;;;;;27.28;45.81;94355.91;5011177;28;20046;-68
2022/09/05 11:19:06;;;;;;;4.30;3.15;;;;;;;26.81;46.02;94352.88;5011418;28;20052;-68
2022/09/05 11:21:58;;;;;;;4.93;3.53;;;;;;;27.15;45.64;94352.84;5010424;28;20086;-66
2022/09/05 11:24:56;;;;;;;4.73;3.30;;;;;;;28.03;44.18;94340.31;5010435;28;20598;-66
2022/09/05 11:27:29;;;;;;;5.80;3.25;;;;;;;28.08;43.59;94348.00;5011128;28;20378;-69
2022/09/05 11:30:16;;;;;;;4.65;3.40;;;;;;;27.25;45.16;94342.13;5011058;28;20046;-66
2022/09/05 11:33:34;;;;;;;4.30;3.22;;;;;;;27.17;45.49;94344.66;5010936;28;20100;-66
2022/09/05 11:36:47;;;;;;;4.95;3.83;;;;;;;26.80;46.82;94344.94;5008018;28;20046;-69
2022/09/05 11:39:56;;;;;;;4.40;3.07;;;;;;;26.63;47.13;94345.69;5010160;28;21482;-66
2022/09/05 11:42:57;;;;;;;6.72;3.55;;;;;;;26.08;48.94;94345.09;5009839;28;20060;-66
2022/09/05 11:45:37;;;;;;;5.35;3.67;;;;;;;25.66;50.17;94341.09;5010513;28;20053;-65
2022/09/05 11:48:22;;;;;;;5.35;3.60;;;;;;;25.99;49.77;94339.69;5009903;28;20385;-66
2022/09/05 11:51:08;;;;;;;4.85;3.65;;;;;;;25.46;50.79;94333.59;5010577;28;20041;-66
2022/09/05 11:53:53;;;;;;;5.43;3.77;;;;;;;25.78;50.99;94344.72;5010596;28;20048;-66
2022/09/05 11:56:50;;;;;;;4.95;3.50;;;;;;;26.33;49.29;94344.63;5009772;28;21472;-66
2022/09/05 12:00:02;;;;;;;7.45;3.50;;;;;;;26.31;48.93;94351.53;5010169;28;20698;-66
2022/09/05 12:03:27;;;;;;;5.65;3.45;;;;;;;26.59;48.07;94348.00;4973650;28;20393;-65
2022/09/05 12:06:25;;;;;;;5.25;3.50;;;;;;;25.77;49.60;94348.03;5009879;28;20397;-71
2022/09/05 12:09:21;;;;;;;5.67;4.00;;;;;;;25.73;50.15;94342.63;5010403;28;20095;-66
2022/09/05 12:12:05;;;;;;;5.72;3.67;;;;;;;25.77;49.88;94333.97;5010176;28;20046;-65
2022/09/05 12:15:07;;;;;;;4.90;3.42;;;;;;;25.68;50.32;94332.16;5009826;28;20306;-71
2022/09/05 12:17:47;;;;;;;5.00;3.50;;;;;;;25.73;50.94;94330.63;5006135;28;20079;-65
2022/09/05 12:20:43;;;;;;;6.82;3.92;;;;;;;25.22;52.31;94330.41;5009565;28;20949;-67
2022/09/05 12:23:30;;;;;;;6.83;3.90;;;;;;;25.45;51.58;94328.47;5009713;28;20115;-71
2022/09/05 12:26:24;;;;;;;5.88;3.90;;;;;;;25.30;52.09;94325.84;5009472;28;20595;-70
2022/09/05 12:29:19;;;;;;;5.53;3.88;;;;;;;25.18;52.44;94319.34;5009558;28;20387;-65
2022/09/05 12:32:09;;;;;;;8.73;4.30;;;;;;;24.99;53.69;94318.22;5010009;28;20048;-66
2022/09/05 12:35:01;;;;;;;5.50;4.20;;;;;;;25.45;52.95;94320.03;5009809;28;20479;-65
2022/09/05 12:37:59;;;;;;;6.87;3.87;;;;;;;25.83;51.81;94315.06;5010121;28;20046;-65
2022/09/05 12:40:58;;;;;;;7.05;4.10;;;;;;;25.92;51.72;94312.06;5009696;28;20064;-65
2022/09/05 12:44:10;;;;;;;6.07;4.20;;;;;;;26.06;51.64;94311.06;5009522;28;20058;-68
2022/09/05 12:47:05;;;;;;;5.55;4.00;;;;;;;25.89;51.97;94308.19;5009631;28;20050;-65
2022/09/05 12:50:10;;;;;;;6.65;3.97;;;;;;;26.18;51.49;94311.09;5009262;28;20056;-65
2022/09/05 12:52:48;;;;;;;9.07;4.40;;;;;;;25.86;52.42;94311.25;5009671;28;20045;-63
2022/09/05 12:55:41;;;;;;;8.07;3.80;;;;;;;26.18;51.03;94311.88;5010277;28;20073;-66
2022/09/05 12:58:25;;;;;;;6.35;4.10;;;;;;;26.28;50.25;94310.34;5009368;28;20508;-65
2022/09/05 13:01:12;;;;;;;6.10;4.05;;;;;;;26.27;51.25;94311.63;5009535;28;21601;-66
2022/09/05 13:04:05;;;;;;;8.48;4.28;;;;;;;26.70;50.52;94310.63;5009866;28;20403;-65
2022/09/05 13:06:57;;;;;;;8.17;4.33;;;;;;;26.66;50.60;94308.09;5007892;28;20046;-66
2022/09/05 13:09:35;;;;;;;8.30;4.22;;;;;;;26.73;49.82;94304.00;5009430;28;20037;-69
2022/09/05 13:12:29;;;;;;;11.63;4.63;;;;;;;26.55;49.73;94299.63;5008963;28;20416;-68
2022/09/05 13:15:25;;;;;;;8.40;4.28;;;;;;;26.69;49.65;94292.22;5008761;28;20042;-71
2022/09/05 13:18:03;;;;;;;8.82;4.55;;;;;;;26.72;49.02;94288.38;4997369;28;20099;-66